Time;durP1;ratioP1;P1;durP2;ratioP2;P2;SDS_P1;SDS_P2;PMS_P1;PMS_P2;Temp;Humidity;BMP_temperature;BMP_pressure;BME280_temperature;BME280_humidity;BME280_pressure;Samples;Min_cycle;Max_cycle;Signal;HPM_P1;HPM_P2
2023/05/23 05:35:06;;;;;;;;;;;11.50;99.90;;;;;;5070126;28;20372;-61
2023/05/23 05:37:34;;;;;;;11.73;3.97;;;11.60;99.90;;;;;;5069672;28;19974;-61
2023/05/23 05:40:05;;;;;;;9.32;4.72;;;11.70;99.90;;;;;;5069511;28;20486;-61
2023/05/23 05:42:36;;;;;;;11.88;4.15;;;11.80;99.90;;;;;;5069696;28;20052;-61
2023/05/23 05:45:03;;;;;;;12.38;4.30;;;11.90;99.90;;;;;;5069414;28;20048;-61
2023/05/23 05:47:32;;;;;;;10.63;4.10;;;12.00;99.90;;;;;;5069553;28;20562;-64
2023/05/23 05:49:58;;;;;;;11.00;4.20;;;11.90;99.90;;;;;;5069754;28;20106;-61
2023/05/23 05:52:26;;;;;;;11.63;4.40;;;12.10;99.90;;;;;;5069882;28;20128;-60
2023/05/23 05:54:52;;;;;;;9.25;3.95;;;12.10;99.90;;;;;;5070390;28;20390;-60
2023/05/23 05:57:19;;;;;;;10.93;3.90;;;12.10;99.90;;;;;;5069433;28;20474;-60
2023/05/23 05:59:46;;;;;;;10.05;4.30;;;12.20;99.90;;;;;;5060694;28;20057;-60
2023/05/23 06:02:14;;;;;;;13.82;3.78;;;12.10;99.90;;;;;;5068126;28;20045;-60
2023/05/23 06:04:41;;;;;;;12.75;4.35;;;12.10;99.90;;;;;;5070771;28;20055;-60
2023/05/23 06:07:08;;;;;;;10.82;4.35;;;12.10;99.90;;;;;;5051440;28;20083;-60
2023/05/23 06:09:35;;;;;;;13.38;4.43;;;12.00;99.90;;;;;;5068380;28;20052;-61
2023/05/23 06:12:02;;;;;;;8.63;3.17;;;11.90;99.90;;;;;;5068557;28;20052;-60
2023/05/23 06:14:28;;;;;;;15.40;5.15;;;11.90;99.90;;;;;;5051796;28;20274;-60
2023/05/23 06:16:55;;;;;;;10.02;3.47;;;11.80;99.90;;;;;;5068429;28;20053;-61
2023/05/23 06:20:11;;;;;;;9.85;3.65;;;11.70;99.90;;;;;;5068975;28;20753;-61
2023/05/23 06:22:41;;;;;;;11.25;3.58;;;11.80;99.90;;;;;;5050916;28;20056;-61
2023/05/23 06:25:08;;;;;;;12.35;3.45;;;11.90;99.90;;;;;;5048662;28;20053;-61
2023/05/23 06:27:36;;;;;;;10.05;2.92;;;11.80;99.90;;;;;;5048896;28;20045;-61
2023/05/23 06:30:03;;;;;;;9.90;3.13;;;11.80;99.90;;;;;;5048957;28;20095;-61
2023/05/23 06:32:30;;;;;;;11.68;3.92;;;11.80;99.90;;;;;;5055328;28;20509;-61
2023/05/23 06:34:57;;;;;;;12.43;4.00;;;11.80;99.90;;;;;;5048700;28;20091;-61
2023/05/23 06:37:23;;;;;;;12.82;3.75;;;11.80;99.90;;;;;;5049908;28;20049;-61
2023/05/23 06:39:50;;;;;;;8.73;3.50;;;11.80;99.90;;;;;;5048577;28;20038;-61
2023/05/23 06:42:17;;;;;;;7.55;3.00;;;11.90;99.90;;;;;;5048153;28;20051;-61
2023/05/23 06:44:55;;;;;;;11.40;3.05;;;11.90;99.90;;;;;;5032150;28;20045;-61
2023/05/23 06:47:23;;;;;;;12.68;3.63;;;11.90;99.90;;;;;;5048556;28;20052;-61
2023/05/23 06:49:50;;;;;;;11.38;3.25;;;12.00;99.90;;;;;;5048451;28;20107;-61
2023/05/23 06:52:17;;;;;;;11.82;3.00;;;12.00;99.90;;;;;;5049514;28;20047;-61
2023/05/23 06:54:44;;;;;;;14.48;3.35;;;12.00;99.90;;;;;;5048312;28;20041;-62
2023/05/23 06:57:11;;;;;;;12.13;3.28;;;12.00;99.90;;;;;;5048299;28;20045;-61
2023/05/23 06:59:38;;;;;;;11.05;2.90;;;12.10;99.90;;;;;;5048247;28;20033;-61
2023/05/23 07:02:05;;;;;;;12.65;3.35;;;12.20;99.90;;;;;;5047621;28;20052;-61
2023/05/23 07:04:32;;;;;;;10.05;2.75;;;12.20;99.90;;;;;;5048338;28;20128;-62
2023/05/23 07:07:02;;;;;;;8.77;3.22;;;12.30;99.90;;;;;;5048194;28;20074;-60
2023/05/23 07:09:29;;;;;;;13.15;3.08;;;12.40;99.90;;;;;;5049456;28;20041;-62
2023/05/23 07:12:06;;;;;;;12.23;3.10;;;12.50;99.90;;;;;;5048039;28;20052;-60
2023/05/23 07:14:36;;;;;;;9.55;2.97;;;12.50;99.90;;;;;;5048281;28;20096;-60
2023/05/23 07:17:04;;;;;;;11.85;3.55;;;12.70;99.90;;;;;;5047769;28;20103;-61
2023/05/23 07:19:32;;;;;;;7.78;2.83;;;12.90;99.90;;;;;;5047735;28;20049;-60
2023/05/23 07:21:59;;;;;;;9.10;3.35;;;13.10;99.90;;;;;;5047819;28;20507;-61
2023/05/23 07:24:28;;;;;;;8.40;2.67;;;13.20;99.90;;;;;;5047867;28;20061;-60
2023/05/23 07:26:55;;;;;;;8.35;3.28;;;13.30;99.90;;;;;;5047682;28;20045;-61
2023/05/23 07:29:23;;;;;;;9.00;3.30;;;13.40;99.90;;;;;;5046825;28;20073;-61
2023/05/23 07:31:52;;;;;;;10.10;2.88;;;13.40;99.90;;;;;;5035161;28;20403;-61
2023/05/23 07:34:21;;;;;;;7.55;2.65;;;13.30;99.90;;;;;;5034183;28;20447;-61
2023/05/23 07:36:52;;;;;;;11.45;2.88;;;13.30;99.90;;;;;;5034241;28;20069;-60
2023/05/23 07:39:21;;;;;;;10.02;2.95;;;13.40;99.90;;;;;;5034241;28;20142;-61
2023/05/23 07:41:49;;;;;;;10.05;2.92;;;13.50;99.90;;;;;;5034266;28;20061;-61
2023/05/23 07:44:17;;;;;;;9.02;2.60;;;13.50;99.80;;;;;;5030010;28;20041;-60
2023/05/23 07:46:44;;;;;;;9.43;2.33;;;13.60;99.50;;;;;;5034132;28;20037;-62
2023/05/23 07:49:11;;;;;;;12.35;2.72;;;13.70;99.70;;;;;;5034381;28;20052;-62
2023/05/23 07:51:38;;;;;;;11.23;2.92;;;13.90;99.50;;;;;;5033490;28;20044;-62
2023/05/23 07:54:05;;;;;;;8.90;2.70;;;14.00;99.10;;;;;;5033894;28;20149;-62
2023/05/23 07:56:32;;;;;;;12.10;3.45;;;14.00;98.50;;;;;;5030119;28;20072;-62
2023/05/23 07:58:59;;;;;;;11.02;3.03;;;13.90;98.60;;;;;;5032943;28;20044;-62
2023/05/23 08:01:28;;;;;;;12.10;2.83;;;13.90;98.30;;;;;;5033115;28;20125;-62
2023/05/23 08:04:02;;;;;;;10.02;2.78;;;13.80;98.30;;;;;;5033320;28;20041;-62
2023/05/23 08:06:52;;;;;;;8.18;2.75;;;13.90;98.70;;;;;;5033731;28;20134;-62
2023/05/23 08:09:41;;;;;;;8.27;2.50;;;14.00;98.80;;;;;;5033933;28;20057;-62
2023/05/23 08:12:11;;;;;;;15.50;2.90;;;14.00;98.60;;;;;;5033556;28;20048;-62
2023/05/23 08:14:39;;;;;;;13.32;3.00;;;14.00;98.60;;;;;;5039137;28;20578;-62
2023/05/23 08:17:22;;;;;;;12.90;3.10;;;14.20;98.70;;;;;;5033890;28;20049;-62
2023/05/23 08:19:50;;;;;;;8.18;2.45;;;14.30;97.90;;;;;;5032734;28;20055;-62
2023/05/23 08:22:17;;;;;;;9.45;2.33;;;14.30;97.50;;;;;;5035740;28;20072;-61
2023/05/23 08:24:44;;;;;;;8.63;2.70;;;14.50;97.30;;;;;;5033110;28;20053;-62
2023/05/23 08:27:11;;;;;;;11.52;2.75;;;14.60;97.00;;;;;;5040478;28;20041;-62
2023/05/23 08:29:38;;;;;;;9.60;2.70;;;14.70;97.20;;;;;;5033184;28;20053;-61
2023/05/23 08:32:05;;;;;;;7.90;2.72;;;14.70;96.10;;;;;;5033170;28;20069;-62
2023/05/23 08:34:33;;;;;;;11.93;3.03;;;14.70;95.90;;;;;;5033171;28;20049;-62
2023/05/23 08:37:00;;;;;;;10.50;2.78;;;14.80;95.80;;;;;;5033050;28;20045;-62
2023/05/23 08:39:27;;;;;;;6.22;2.40;;;14.90;95.80;;;;;;5032898;28;20091;-62
2023/05/23 08:42:11;;;;;;;8.52;2.95;;;15.00;94.60;;;;;;5032246;28;20063;-62
2023/05/23 08:44:39;;;;;;;18.33;3.10;;;15.00;94.70;;;;;;5035404;28;20037;-62
2023/05/23 08:47:06;;;;;;;10.02;2.58;;;14.90;95.10;;;;;;5033030;28;20072;-65
2023/05/23 08:49:50;;;;;;;7.85;2.22;;;15.00;94.70;;;;;;5033114;28;20053;-65
2023/05/23 08:52:17;;;;;;;9.95;2.78;;;15.00;94.20;;;;;;5029857;28;20111;-64
2023/05/23 08:54:47;;;;;;;9.38;2.40;;;15.00;94.60;;;;;;5029893;28;20048;-65
2023/05/23 08:57:13;;;;;;;7.07;2.60;;;15.10;94.70;;;;;;5033798;28;20065;-65
2023/05/23 08:59:46;;;;;;;7.13;2.67;;;15.30;94.70;;;;;;5032603;28;20037;-66
2023/05/23 09:02:13;;;;;;;6.78;2.42;;;15.30;94.30;;;;;;5032737;28;20048;-67
2023/05/23 09:04:40;;;;;;;6.43;2.30;;;15.30;94.30;;;;;;5032612;28;20045;-65
2023/05/23 09:07:13;;;;;;;11.18;3.10;;;15.30;93.90;;;;;;5032624;28;20048;-65
2023/05/23 09:09:40;;;;;;;8.93;2.72;;;15.30;94.30;;;;;;5033663;28;20038;-65
2023/05/23 09:12:09;;;;;;;11.45;2.40;;;15.30;94.40;;;;;;5031731;28;20057;-65
2023/05/23 09:14:36;;;;;;;8.65;2.67;;;15.30;93.90;;;;;;5036097;28;20084;-65
2023/05/23 09:17:06;;;;;;;8.38;2.50;;;15.30;94.30;;;;;;5032393;28;20042;-65
2023/05/23 09:19:33;;;;;;;9.85;2.58;;;15.30;94.20;;;;;;5031984;28;20088;-65
2023/05/23 09:22:13;;;;;;;7.82;2.28;;;15.40;93.80;;;;;;5032354;28;20491;-65
2023/05/23 09:24:56;;;;;;;11.68;2.70;;;15.30;93.60;;;;;;5032374;28;20574;-65
2023/05/23 09:27:23;;;;;;;8.15;3.25;;;15.40;94.00;;;;;;5032240;28;20458;-65
2023/05/23 09:29:50;;;;;;;6.60;2.33;;;15.40;93.50;;;;;;5032198;28;20487;-65
2023/05/23 09:32:18;;;;;;;7.65;2.45;;;15.50;93.80;;;;;;5031753;28;20083;-65
2023/05/23 09:34:45;;;;;;;10.88;2.17;;;15.60;93.70;;;;;;5032010;28;20053;-65
2023/05/23 09:37:17;;;;;;;7.93;2.90;;;15.60;93.30;;;;;;5032180;28;20053;-65
2023/05/23 09:39:43;;;;;;;8.65;2.47;;;15.60;93.50;;;;;;5031876;28;20045;-65
2023/05/23 09:42:10;;;;;;;8.02;2.30;;;15.70;92.70;;;;;;5032050;28;20045;-65
2023/05/23 09:44:38;;;;;;;9.38;2.40;;;15.70;92.80;;;;;;5039479;28;20157;-65
2023/05/23 09:47:04;;;;;;;8.15;2.33;;;15.70;92.50;;;;;;5031884;28;20037;-65
2023/05/23 09:49:31;;;;;;;13.25;2.95;;;15.80;92.70;;;;;;5031934;28;20057;-65
2023/05/23 09:51:58;;;;;;;8.18;2.58;;;15.70;92.20;;;;;;5031844;28;20469;-65
2023/05/23 09:54:25;;;;;;;7.55;2.20;;;15.60;92.20;;;;;;5026163;28;20140;-66
2023/05/23 09:56:52;;;;;;;7.35;2.70;;;15.70;92.50;;;;;;5030331;28;20124;-65
2023/05/23 09:59:22;;;;;;;7.80;2.50;;;15.80;92.60;;;;;;5032664;28;20048;-65
2023/05/23 10:01:49;;;;;;;10.55;2.92;;;15.80;92.10;;;;;;5027963;28;20060;-65
2023/05/23 10:04:16;;;;;;;5.40;2.47;;;15.80;92.10;;;;;;5032234;28;20069;-65
2023/05/23 10:06:43;;;;;;;13.25;2.72;;;15.80;92.30;;;;;;5032714;28;20049;-65
2023/05/23 10:09:10;;;;;;;8.40;2.40;;;15.90;93.10;;;;;;5032729;28;20041;-66
2023/05/23 10:11:37;;;;;;;7.55;2.42;;;16.00;92.30;;;;;;5031105;28;20049;-66
2023/05/23 10:14:04;;;;;;;9.02;2.83;;;16.00;92.40;;;;;;5034853;28;20428;-65
2023/05/23 10:16:31;;;;;;;8.40;2.15;;;16.10;92.60;;;;;;5032531;28;20045;-66
2023/05/23 10:18:58;;;;;;;12.45;2.63;;;16.30;92.40;;;;;;5031352;28;20049;-66
2023/05/23 10:21:25;;;;;;;8.50;2.60;;;16.40;91.90;;;;;;5032804;28;20099;-68
2023/05/23 10:23:51;;;;;;;11.40;2.25;;;16.40;91.80;;;;;;5032848;28;20091;-66
2023/05/23 10:26:18;;;;;;;8.38;2.22;;;16.30;91.40;;;;;;5032605;28;20033;-66
2023/05/23 10:28:45;;;;;;;8.25;2.50;;;16.30;91.30;;;;;;5032906;28;20066;-66
2023/05/23 10:31:12;;;;;;;8.82;2.35;;;16.20;91.30;;;;;;5032671;28;20049;-65
2023/05/23 10:33:38;;;;;;;11.23;2.60;;;16.00;92.10;;;;;;5031491;28;20042;-66
2023/05/23 10:36:05;;;;;;;8.88;2.53;;;16.10;92.20;;;;;;5032385;28;20045;-66
2023/05/23 10:38:32;;;;;;;7.57;2.38;;;16.20;91.80;;;;;;5031220;28;20053;-66
2023/05/23 10:40:59;;;;;;;10.57;2.58;;;16.30;92.00;;;;;;5032332;28;20042;-66
2023/05/23 10:43:26;;;;;;;10.40;2.53;;;16.50;91.60;;;;;;5037334;28;20124;-65
2023/05/23 10:45:53;;;;;;;9.82;2.65;;;16.50;91.30;;;;;;5032410;28;20045;-66
2023/05/23 10:48:20;;;;;;;14.32;2.40;;;16.60;91.40;;;;;;5032569;28;20041;-67
2023/05/23 10:50:47;;;;;;;10.25;2.60;;;16.70;91.20;;;;;;5032404;28;20069;-66
2023/05/23 10:53:13;;;;;;;12.38;2.60;;;16.70;91.30;;;;;;5032829;28;20045;-67
2023/05/23 10:55:40;;;;;;;8.77;2.45;;;16.70;91.10;;;;;;5032406;28;20125;-66
2023/05/23 10:58:07;;;;;;;10.65;2.42;;;16.70;91.70;;;;;;5032359;28;20037;-67
2023/05/23 11:00:34;;;;;;;8.80;2.50;;;16.90;91.60;;;;;;5032436;28;20069;-67
2023/05/23 11:03:01;;;;;;;15.38;2.83;;;16.90;91.00;;;;;;5032555;28;20041;-66
2023/05/23 11:05:30;;;;;;;8.43;3.30;;;16.90;91.00;;;;;;5033641;28;20116;-66
2023/05/23 11:07:57;;;;;;;8.70;2.55;;;16.90;91.00;;;;;;5036175;28;20044;-66
2023/05/23 11:10:24;;;;;;;9.15;2.58;;;17.10;91.40;;;;;;5034942;28;20041;-67
2023/05/23 11:12:51;;;;;;;8.43;2.75;;;17.20;91.40;;;;;;5036399;28;20438;-66
2023/05/23 11:15:19;;;;;;;12.40;3.10;;;17.50;91.00;;;;;;5034661;28;20049;-66
2023/05/23 11:17:45;;;;;;;8.80;2.75;;;17.70;91.00;;;;;;5035666;28;20057;-66
2023/05/23 11:20:15;;;;;;;9.00;2.63;;;17.90;90.90;;;;;;5035619;28;20116;-66
2023/05/23 11:22:42;;;;;;;9.07;2.90;;;17.90;90.50;;;;;;5035750;28;20040;-66
2023/05/23 11:25:09;;;;;;;8.15;2.80;;;18.10;91.10;;;;;;5035617;28;20124;-66
2023/05/23 11:27:36;;;;;;;10.85;2.83;;;18.30;90.80;;;;;;5035546;28;20088;-67
2023/05/23 11:30:03;;;;;;;13.77;3.10;;;18.40;90.70;;;;;;5034225;28;20471;-65
2023/05/23 11:32:30;;;;;;;14.20;3.05;;;18.60;90.30;;;;;;5035773;28;20046;-65
2023/05/23 11:34:57;;;;;;;8.48;2.53;;;18.60;90.20;;;;;;5035039;28;20037;-65
2023/05/23 11:37:24;;;;;;;8.70;2.42;;;18.70;90.60;;;;;;5034717;28;20088;-65
2023/05/23 11:39:53;;;;;;;10.85;2.95;;;18.90;90.10;;;;;;5035135;28;20088;-65
2023/05/23 11:42:19;;;;;;;9.55;2.88;;;18.80;88.20;;;;;;5034109;28;20048;-65
2023/05/23 11:44:46;;;;;;;6.88;2.25;;;18.60;89.50;;;;;;5038328;28;20037;-64
2023/05/23 11:47:13;;;;;;;9.32;2.72;;;18.50;88.80;;;;;;5035830;28;20088;-65
2023/05/23 11:49:40;;;;;;;6.03;2.15;;;18.30;89.00;;;;;;5034726;28;20041;-64
2023/05/23 11:52:06;;;;;;;10.52;2.70;;;18.20;89.90;;;;;;5034916;28;20096;-66
2023/05/23 11:54:33;;;;;;;9.05;2.60;;;18.10;89.50;;;;;;5035515;28;20044;-66
2023/05/23 11:57:00;;;;;;;8.85;2.53;;;18.10;89.30;;;;;;5034479;28;20603;-67
2023/05/23 11:59:27;;;;;;;9.73;2.97;;;18.10;89.10;;;;;;5035316;28;20077;-65
2023/05/23 12:01:54;;;;;;;8.13;2.53;;;18.10;90.00;;;;;;5033692;28;20037;-65
2023/05/23 12:04:21;;;;;;;9.07;3.03;;;18.20;90.10;;;;;;5035160;28;20554;-65
2023/05/23 12:06:48;;;;;;;7.78;2.30;;;18.10;90.00;;;;;;5034743;28;20038;-65
2023/05/23 12:09:15;;;;;;;9.40;2.53;;;18.20;90.50;;;;;;5034791;28;20120;-65
2023/05/23 12:11:42;;;;;;;8.90;2.63;;;18.30;90.20;;;;;;5033796;28;20403;-65
2023/05/23 12:14:09;;;;;;;11.02;3.03;;;18.50;90.20;;;;;;5040406;28;20072;-65
2023/05/23 12:16:36;;;;;;;10.70;3.00;;;18.50;89.80;;;;;;5034524;28;20056;-66
2023/05/23 12:19:05;;;;;;;9.40;2.75;;;18.60;90.20;;;;;;5034475;28;20052;-66
2023/05/23 12:21:32;;;;;;;8.43;2.53;;;18.70;89.90;;;;;;5034457;28;20048;-65
2023/05/23 12:23:59;;;;;;;9.15;2.92;;;18.70;90.10;;;;;;5033362;28;20091;-66
2023/05/23 12:26:26;;;;;;;4.78;2.20;;;18.80;89.10;;;;;;5034420;28;20042;-66
2023/05/23 12:28:53;;;;;;;7.00;2.72;;;18.70;89.50;;;;;;5036630;28;20069;-64
2023/05/23 12:31:20;;;;;;;8.40;2.60;;;18.60;89.30;;;;;;5034075;28;20467;-64
2023/05/23 12:33:47;;;;;;;8.52;2.58;;;18.40;90.00;;;;;;5033083;28;20077;-65
2023/05/23 12:36:16;;;;;;;8.52;2.70;;;18.50;90.30;;;;;;5034412;28;20602;-64
2023/05/23 12:38:44;;;;;;;8.70;2.72;;;18.60;89.60;;;;;;5034296;28;20054;-65
2023/05/23 12:41:11;;;;;;;10.02;2.38;;;18.60;90.30;;;;;;5034347;28;20045;-64
2023/05/23 12:43:38;;;;;;;8.30;2.83;;;18.60;89.60;;;;;;5035446;28;20045;-64
2023/05/23 12:46:05;;;;;;;8.32;2.53;;;18.70;89.10;;;;;;5034144;28;20052;-65
2023/05/23 12:48:32;;;;;;;9.20;2.85;;;18.80;89.20;;;;;;5034024;28;20517;-65
2023/05/23 12:51:00;;;;;;;9.35;2.72;;;18.70;89.50;;;;;;5032858;28;20492;-65
2023/05/23 12:53:27;;;;;;;8.25;2.60;;;18.70;89.10;;;;;;5034243;28;20077;-65
2023/05/23 12:55:54;;;;;;;9.07;2.47;;;18.50;89.00;;;;;;5034054;28;20484;-64
2023/05/23 12:58:21;;;;;;;6.97;2.78;;;18.50;89.60;;;;;;5033979;28;20066;-64
2023/05/23 13:00:47;;;;;;;6.03;2.13;;;18.70;88.40;;;;;;5034230;28;20044;-65
2023/05/23 13:03:14;;;;;;;5.50;2.40;;;18.80;88.50;;;;;;5033914;28;20041;-65
2023/05/23 13:05:41;;;;;;;7.47;2.58;;;18.80;88.80;;;;;;5033887;28;20043;-65
2023/05/23 13:08:08;;;;;;;10.15;2.67;;;18.80;89.10;;;;;;5033798;28;20041;-64
2023/05/23 13:10:35;;;;;;;7.57;2.95;;;18.90;89.20;;;;;;5033735;28;20042;-65
2023/05/23 13:13:03;;;;;;;8.68;3.05;;;19.20;88.90;;;;;;5037401;28;20123;-66
2023/05/23 13:15:29;;;;;;;9.88;2.70;;;19.40;87.50;;;;;;5033573;28;20381;-64
2023/05/23 13:17:56;;;;;;;6.75;2.47;;;19.30;88.30;;;;;;5033412;28;20044;-64
2023/05/23 13:20:23;;;;;;;6.75;2.42;;;19.30;87.90;;;;;;5033725;28;20391;-64
2023/05/23 13:22:50;;;;;;;7.78;2.50;;;19.30;87.60;;;;;;5033731;28;20040;-65
2023/05/23 13:25:17;;;;;;;6.30;2.28;;;19.30;87.70;;;;;;5033365;28;20048;-64
2023/05/23 13:27:44;;;;;;;7.13;2.33;;;19.50;87.80;;;;;;5032818;28;20042;-64
2023/05/23 13:30:13;;;;;;;10.25;2.78;;;19.60;87.00;;;;;;5033256;28;20120;-64
2023/05/23 13:32:40;;;;;;;9.02;2.95;;;19.60;87.00;;;;;;5032107;28;20479;-64
2023/05/23 13:35:07;;;;;;;7.55;2.67;;;19.70;86.60;;;;;;5033423;28;20037;-64
2023/05/23 13:37:34;;;;;;;7.55;2.67;;;19.70;87.10;;;;;;5033245;28;20095;-64
2023/05/23 13:40:00;;;;;;;11.32;2.83;;;19.70;86.40;;;;;;5031929;28;20046;-64
2023/05/23 13:42:27;;;;;;;9.05;2.72;;;19.70;86.90;;;;;;5034472;28;20415;-65
2023/05/23 13:44:54;;;;;;;10.88;2.70;;;19.60;87.40;;;;;;5038008;28;20049;-65
2023/05/23 13:47:21;;;;;;;8.35;2.65;;;19.60;87.90;;;;;;5033116;28;20041;-65
2023/05/23 13:49:48;;;;;;;11.93;3.00;;;19.60;87.10;;;;;;5033009;28;20091;-64
2023/05/23 13:52:15;;;;;;;9.43;2.60;;;19.50;87.80;;;;;;5033109;28;20099;-64
2023/05/23 13:54:42;;;;;;;7.25;2.60;;;19.70;87.50;;;;;;5033214;28;20045;-64
2023/05/23 13:57:09;;;;;;;8.93;2.90;;;19.60;87.30;;;;;;5032941;28;20045;-64
2023/05/23 13:59:35;;;;;;;8.00;2.60;;;19.60;87.20;;;;;;5033023;28;20041;-64
2023/05/23 14:02:02;;;;;;;6.93;2.63;;;19.60;86.60;;;;;;5032920;28;20049;-64
2023/05/23 14:04:29;;;;;;;7.60;2.53;;;19.60;86.40;;;;;;5032895;28;20154;-63
2023/05/23 14:06:56;;;;;;;7.85;2.90;;;19.70;87.10;;;;;;5032689;28;20041;-64
2023/05/23 14:09:23;;;;;;;11.82;2.67;;;19.70;86.00;;;;;;5032911;28;20033;-65
2023/05/23 14:11:52;;;;;;;10.13;2.80;;;19.80;86.90;;;;;;5032889;28;20034;-63
2023/05/23 14:14:19;;;;;;;7.65;2.55;;;19.90;86.60;;;;;;5034769;28;20048;-64
2023/05/23 14:16:46;;;;;;;6.25;2.40;;;20.00;87.20;;;;;;5032473;28;20053;-64
2023/05/23 14:19:13;;;;;;;11.73;2.90;;;20.20;86.50;;;;;;5032625;28;20057;-63
2023/05/23 14:21:40;;;;;;;6.60;2.25;;;20.00;86.20;;;;;;5036373;28;20480;-64
2023/05/23 14:24:10;;;;;;;9.90;3.10;;;19.80;86.20;;;;;;5032657;28;20038;-64
2023/05/23 14:26:37;;;;;;;7.60;2.78;;;19.80;87.00;;;;;;5032364;28;20041;-63
2023/05/23 14:29:03;;;;;;;7.63;2.70;;;19.70;86.30;;;;;;5032491;28;20386;-64
2023/05/23 14:31:30;;;;;;;7.85;2.45;;;19.80;86.70;;;;;;5031914;28;20362;-64
2023/05/23 14:33:57;;;;;;;9.85;2.85;;;19.70;86.60;;;;;;5031926;28;20049;-64
2023/05/23 14:36:24;;;;;;;11.60;3.15;;;19.70;86.40;;;;;;5031336;28;20045;-63
2023/05/23 14:38:50;;;;;;;9.13;2.65;;;19.70;87.20;;;;;;5032510;28;20083;-63
2023/05/23 14:41:17;;;;;;;11.02;2.80;;;19.80;86.80;;;;;;5035204;28;20046;-63
2023/05/23 14:43:44;;;;;;;8.50;2.92;;;20.00;87.20;;;;;;5038996;28;20061;-63
2023/05/23 14:46:12;;;;;;;9.63;3.15;;;20.10;86.30;;;;;;5031294;28;20447;-64
2023/05/23 14:48:39;;;;;;;10.52;3.38;;;20.10;85.90;;;;;;5027986;28;20117;-65
2023/05/23 14:51:06;;;;;;;7.93;2.42;;;20.20;85.90;;;;;;5035197;28;20395;-64
2023/05/23 14:53:33;;;;;;;9.32;2.70;;;20.20;85.80;;;;;;5036286;28;20351;-65
2023/05/23 14:55:59;;;;;;;8.07;2.58;;;20.10;85.00;;;;;;5036199;28;20044;-64
2023/05/23 14:58:26;;;;;;;7.97;2.33;;;19.90;85.20;;;;;;5034796;28;20574;-65
2023/05/23 15:00:53;;;;;;;8.25;2.78;;;19.60;85.30;;;;;;5033792;28;20044;-64
2023/05/23 15:03:20;;;;;;;7.43;2.88;;;19.50;86.20;;;;;;5029583;28;20037;-64
2023/05/23 15:05:46;;;;;;;6.65;2.60;;;19.60;86.30;;;;;;5036146;28;20048;-64
2023/05/23 15:08:15;;;;;;;8.40;2.80;;;19.60;86.50;;;;;;5035768;28;20455;-64
2023/05/23 15:10:43;;;;;;;6.90;2.22;;;19.60;86.70;;;;;;5029661;28;20046;-64
2023/05/23 15:13:10;;;;;;;7.88;2.47;;;19.60;87.10;;;;;;5029778;28;20109;-64
2023/05/23 15:15:37;;;;;;;7.95;2.53;;;19.60;86.90;;;;;;5041572;28;20046;-65
2023/05/23 15:18:06;;;;;;;7.22;2.50;;;19.70;87.30;;;;;;5029162;28;20504;-64
2023/05/23 15:20:33;;;;;;;8.55;2.97;;;19.80;87.10;;;;;;5035919;28;20400;-65
2023/05/23 15:23:00;;;;;;;10.98;2.83;;;19.80;87.40;;;;;;5035863;28;20037;-64
2023/05/23 15:25:27;;;;;;;11.30;2.90;;;19.90;87.00;;;;;;5029347;28;20550;-64
2023/05/23 15:28:14;;;;;;;7.07;2.65;;;19.90;86.60;;;;;;5032116;28;20364;-64
2023/05/23 15:30:40;;;;;;;7.63;2.70;;;19.80;86.50;;;;;;5035585;28;20048;-64
2023/05/23 15:33:08;;;;;;;8.52;2.47;;;19.60;87.30;;;;;;5035668;28;20475;-64
2023/05/23 15:35:35;;;;;;;9.35;2.80;;;19.50;87.40;;;;;;5034546;28;20046;-65
2023/05/23 15:38:01;;;;;;;7.90;2.58;;;19.50;87.50;;;;;;5038459;28;20041;-66
2023/05/23 15:40:28;;;;;;;8.32;2.70;;;19.50;87.80;;;;;;5035519;28;20045;-67
2023/05/23 15:42:55;;;;;;;8.52;2.70;;;19.50;87.30;;;;;;5035538;28;20072;-66
2023/05/23 15:45:22;;;;;;;8.20;2.70;;;19.30;87.50;;;;;;5035511;28;20141;-65
2023/05/23 15:47:49;;;;;;;5.95;2.50;;;19.20;88.20;;;;;;5035234;28;20396;-65
2023/05/23 15:50:17;;;;;;;10.63;2.90;;;19.10;88.70;;;;;;5035476;28;20095;-65
2023/05/23 15:52:44;;;;;;;9.55;2.92;;;19.10;88.80;;;;;;5034853;28;20041;-65
2023/05/23 15:55:11;;;;;;;10.02;3.00;;;19.20;89.20;;;;;;5034137;28;20045;-65
2023/05/23 15:57:37;;;;;;;14.27;2.92;;;19.10;89.00;;;;;;5035152;28;20041;-65
2023/05/23 16:00:04;;;;;;;6.65;2.85;;;19.30;88.20;;;;;;5035328;28;20041;-65
2023/05/23 16:02:37;;;;;;;8.35;3.08;;;19.90;87.40;;;;;;5035030;28;20058;-64
2023/05/23 16:05:04;;;;;;;7.80;2.50;;;20.50;86.90;;;;;;5035384;28;20045;-65
2023/05/23 16:07:31;;;;;;;9.55;3.17;;;21.10;86.80;;;;;;5036245;28;20045;-64
2023/05/23 16:09:57;;;;;;;9.45;2.90;;;21.40;85.60;;;;;;5038997;28;20037;-65
2023/05/23 16:12:24;;;;;;;10.00;2.80;;;21.80;86.10;;;;;;5034985;28;20045;-65
2023/05/23 16:14:51;;;;;;;11.52;3.92;;;22.10;86.00;;;;;;5035038;28;20552;-64
2023/05/23 16:17:18;;;;;;;12.43;3.28;;;22.30;86.00;;;;;;5035069;28;20415;-65
2023/05/23 16:19:45;;;;;;;11.10;2.60;;;22.40;86.00;;;;;;5034445;28;20068;-65
2023/05/23 16:22:12;;;;;;;12.63;3.00;;;22.10;86.30;;;;;;5034801;28;20487;-65
2023/05/23 16:24:38;;;;;;;11.98;3.20;;;21.70;86.50;;;;;;5035026;28;20042;-66
2023/05/23 16:27:05;;;;;;;12.88;2.97;;;21.40;87.50;;;;;;5033438;28;20120;-65
2023/05/23 16:29:32;;;;;;;11.07;3.25;;;21.40;86.90;;;;;;5034769;28;20041;-65
2023/05/23 16:31:59;;;;;;;11.30;2.75;;;21.30;86.90;;;;;;5031378;28;20101;-65
2023/05/23 16:34:26;;;;;;;7.68;2.67;;;21.10;87.20;;;;;;5034701;28;20079;-66
2023/05/23 16:36:52;;;;;;;7.93;2.53;;;21.50;87.00;;;;;;5034684;28;20045;-64
2023/05/23 16:39:19;;;;;;;8.05;2.65;;;21.50;86.50;;;;;;5034178;28;20084;-65
2023/05/23 16:41:46;;;;;;;9.50;2.83;;;21.30;86.30;;;;;;5027642;28;20042;-64
2023/05/23 16:44:13;;;;;;;12.68;2.90;;;21.10;86.90;;;;;;5019313;28;20065;-64
2023/05/23 16:46:40;;;;;;;8.75;2.90;;;21.10;86.90;;;;;;5032985;28;20044;-64
2023/05/23 16:49:06;;;;;;;9.65;3.30;;;21.40;86.80;;;;;;5027679;28;20084;-64
2023/05/23 16:51:33;;;;;;;10.20;2.97;;;21.80;86.70;;;;;;5032012;28;20052;-65
2023/05/23 16:54:00;;;;;;;12.10;3.22;;;22.00;86.00;;;;;;5032431;28;20037;-64
2023/05/23 16:56:27;;;;;;;13.00;3.50;;;22.20;85.60;;;;;;5030064;28;20037;-64
2023/05/23 16:58:53;;;;;;;9.63;3.00;;;22.00;86.60;;;;;;5029030;28;20041;-64
2023/05/23 17:01:20;;;;;;;8.77;2.92;;;21.60;87.30;;;;;;5032336;28;20065;-64
2023/05/23 17:03:47;;;;;;;11.25;2.97;;;21.30;88.60;;;;;;5025730;28;20451;-65
2023/05/23 17:06:14;;;;;;;9.82;3.30;;;21.20;89.00;;;;;;5032716;28;20037;-65
2023/05/23 17:08:41;;;;;;;11.52;3.40;;;21.00;88.90;;;;;;5036259;28;20033;-65
2023/05/23 17:11:08;;;;;;;11.02;3.40;;;21.20;89.40;;;;;;5031458;28;20044;-64
2023/05/23 17:13:35;;;;;;;12.02;3.05;;;21.50;88.80;;;;;;5033107;28;20468;-65
2023/05/23 17:16:01;;;;;;;8.23;2.83;;;21.90;88.60;;;;;;5030807;28;20056;-63
2023/05/23 17:18:28;;;;;;;13.38;3.33;;;22.30;86.80;;;;;;5029631;28;20115;-62
2023/05/23 17:20:55;;;;;;;10.00;3.08;;;22.60;86.40;;;;;;5033087;28;20041;-60
2023/05/23 17:23:22;;;;;;;9.77;2.90;;;22.70;86.50;;;;;;5032721;28;20036;-60
2023/05/23 17:25:49;;;;;;;10.20;3.22;;;22.70;85.90;;;;;;5033337;28;20049;-61
2023/05/23 17:28:16;;;;;;;9.77;2.65;;;22.90;86.60;;;;;;5033583;28;20124;-61
2023/05/23 17:30:43;;;;;;;12.70;3.40;;;23.10;85.40;;;;;;5037047;28;20484;-61
2023/05/23 17:33:10;;;;;;;12.05;3.80;;;23.10;85.50;;;;;;5033345;28;20042;-61
2023/05/23 17:35:37;;;;;;;10.60;2.97;;;23.00;85.30;;;;;;5047997;28;20033;-61
2023/05/23 17:38:03;;;;;;;10.40;3.42;;;22.60;85.70;;;;;;5031695;28;20042;-60
2023/05/23 17:40:30;;;;;;;10.65;2.78;;;22.00;87.00;;;;;;5032808;28;20045;-60
2023/05/23 17:42:57;;;;;;;12.50;3.38;;;21.60;87.50;;;;;;5033047;28;20037;-60
2023/05/23 17:45:24;;;;;;;8.85;2.97;;;21.20;88.10;;;;;;5033346;28;20041;-60
2023/05/23 17:47:51;;;;;;;10.70;3.30;;;20.70;88.70;;;;;;5035926;28;20112;-60
2023/05/23 17:50:18;;;;;;;13.45;3.45;;;20.70;89.60;;;;;;5033226;28;20038;-60
2023/05/23 17:52:45;;;;;;;11.63;3.40;;;20.80;89.30;;;;;;5036869;28;20041;-60
2023/05/23 17:55:12;;;;;;;11.30;3.10;;;20.70;89.80;;;;;;5033297;28;20421;-60
2023/05/23 17:57:39;;;;;;;13.48;3.10;;;20.70;90.10;;;;;;5036317;28;20045;-61
2023/05/23 18:00:05;;;;;;;11.40;3.25;;;21.10;89.90;;;;;;5034090;28;20041;-61
2023/05/23 18:02:38;;;;;;;12.65;3.03;;;21.30;89.10;;;;;;5034819;28;20053;-61
2023/05/23 18:05:05;;;;;;;13.77;3.30;;;21.40;88.80;;;;;;5033616;28;20045;-60
2023/05/23 18:07:32;;;;;;;8.90;2.88;;;21.40;88.90;;;;;;5033075;28;20040;-60
2023/05/23 18:09:59;;;;;;;8.25;2.85;;;21.50;89.50;;;;;;5037611;28;20132;-61
2023/05/23 18:12:26;;;;;;;12.50;3.15;;;21.30;88.70;;;;;;5031912;28;20045;-61
2023/05/23 18:14:53;;;;;;;10.13;3.22;;;21.10;88.90;;;;;;5037176;28;20048;-61
2023/05/23 18:17:20;;;;;;;10.60;3.20;;;20.70;89.90;;;;;;5033004;28;20046;-61
2023/05/23 18:19:47;;;;;;;9.13;3.10;;;20.60;90.00;;;;;;5035095;28;20048;-60